sensor_id;sensor_type;location;lat;lon;timestamp;pressure;altitude;pressure_sealevel;temperature
64904;BMP280;51401;48.882;12.598;2022-08-14T00:01:06;97468.94;;;18.25
64904;BMP280;51401;48.882;12.598;2022-08-14T00:03:31;97473.25;;;18.19
64904;BMP280;51401;48.882;12.598;2022-08-14T00:05:59;97466.19;;;18.28
64904;BMP280;51401;48.882;12.598;2022-08-14T00:08:25;97463.19;;;18.17
64904;BMP280;51401;48.882;12.598;2022-08-14T00:10:51;97468.81;;;18.07
64904;BMP280;51401;48.882;12.598;2022-08-14T00:13:18;97454.06;;;18.01
64904;BMP280;51401;48.882;12.598;2022-08-14T00:15:45;97461.50;;;18.02
64904;BMP280;51401;48.882;12.598;2022-08-14T00:18:13;97462.94;;;18.03
64904;BMP280;51401;48.882;12.598;2022-08-14T00:20:40;97460.03;;;18.01
64904;BMP280;51401;48.882;12.598;2022-08-14T00:23:07;97462.47;;;17.96
64904;BMP280;51401;48.882;12.598;2022-08-14T00:25:34;97462.72;;;17.89
64904;BMP280;51401;48.882;12.598;2022-08-14T00:27:59;97457.34;;;17.92
64904;BMP280;51401;48.882;12.598;2022-08-14T00:30:25;97461.38;;;17.84
64904;BMP280;51401;48.882;12.598;2022-08-14T00:32:51;97458.00;;;17.84
64904;BMP280;51401;48.882;12.598;2022-08-14T00:35:16;97454.94;;;17.85
64904;BMP280;51401;48.882;12.598;2022-08-14T00:37:44;97456.75;;;17.88
64904;BMP280;51401;48.882;12.598;2022-08-14T00:40:12;97455.88;;;17.91
64904;BMP280;51401;48.882;12.598;2022-08-14T00:42:38;97454.41;;;17.90
64904;BMP280;51401;48.882;12.598;2022-08-14T00:45:06;97444.78;;;17.87
64904;BMP280;51401;48.882;12.598;2022-08-14T00:47:31;97444.16;;;17.83
64904;BMP280;51401;48.882;12.598;2022-08-14T00:49:59;97451.41;;;17.80
64904;BMP280;51401;48.882;12.598;2022-08-14T00:52:27;97447.88;;;17.74
64904;BMP280;51401;48.882;12.598;2022-08-14T00:54:53;97446.94;;;17.68
64904;BMP280;51401;48.882;12.598;2022-08-14T00:57:28;97447.81;;;17.65
64904;BMP280;51401;48.882;12.598;2022-08-14T00:59:54;97452.53;;;17.57
64904;BMP280;51401;48.882;12.598;2022-08-14T01:02:22;97451.41;;;17.46
64904;BMP280;51401;48.882;12.598;2022-08-14T01:04:50;97444.94;;;17.38
64904;BMP280;51401;48.882;12.598;2022-08-14T01:07:16;97439.50;;;17.33
64904;BMP280;51401;48.882;12.598;2022-08-14T01:09:46;97447.16;;;17.27
64904;BMP280;51401;48.882;12.598;2022-08-14T01:12:14;97442.47;;;17.23
64904;BMP280;51401;48.882;12.598;2022-08-14T01:14:40;97438.59;;;17.15
64904;BMP280;51401;48.882;12.598;2022-08-14T01:17:05;97443.22;;;17.11
64904;BMP280;51401;48.882;12.598;2022-08-14T01:19:31;97448.47;;;17.11
64904;BMP280;51401;48.882;12.598;2022-08-14T01:22:15;97438.28;;;17.13
64904;BMP280;51401;48.882;12.598;2022-08-14T01:24:42;97439.75;;;17.14
64904;BMP280;51401;48.882;12.598;2022-08-14T01:27:16;97443.84;;;17.15
64904;BMP280;51401;48.882;12.598;2022-08-14T01:29:48;97433.78;;;17.13
64904;BMP280;51401;48.882;12.598;2022-08-14T01:32:15;97433.66;;;17.17
64904;BMP280;51401;48.882;12.598;2022-08-14T01:34:42;97438.97;;;17.25
64904;BMP280;51401;48.882;12.598;2022-08-14T01:37:08;97439.22;;;17.19
64904;BMP280;51401;48.882;12.598;2022-08-14T01:39:34;97440.16;;;17.12
64904;BMP280;51401;48.882;12.598;2022-08-14T01:42:00;97432.41;;;17.09
64904;BMP280;51401;48.882;12.598;2022-08-14T01:44:27;97435.44;;;17.07
64904;BMP280;51401;48.882;12.598;2022-08-14T01:46:56;97434.09;;;17.03
64904;BMP280;51401;48.882;12.598;2022-08-14T01:49:23;97428.97;;;16.99
64904;BMP280;51401;48.882;12.598;2022-08-14T01:51:48;97420.72;;;17.01
64904;BMP280;51401;48.882;12.598;2022-08-14T01:54:18;97423.31;;;17.01
64904;BMP280;51401;48.882;12.598;2022-08-14T01:56:50;97420.78;;;16.98
64904;BMP280;51401;48.882;12.598;2022-08-14T02:01:41;97423.84;;;16.96
64904;BMP280;51401;48.882;12.598;2022-08-14T02:04:08;97423.94;;;16.93
64904;BMP280;51401;48.882;12.598;2022-08-14T02:06:34;97417.66;;;16.90
64904;BMP280;51401;48.882;12.598;2022-08-14T02:09:06;97417.34;;;16.88
64904;BMP280;51401;48.882;12.598;2022-08-14T02:11:32;97416.72;;;16.84
64904;BMP280;51401;48.882;12.598;2022-08-14T02:14:01;97422.09;;;16.81
64904;BMP280;51401;48.882;12.598;2022-08-14T02:16:31;97419.13;;;16.79
64904;BMP280;51401;48.882;12.598;2022-08-14T02:19:01;97421.13;;;16.75
64904;BMP280;51401;48.882;12.598;2022-08-14T02:21:29;97419.44;;;16.69
64904;BMP280;51401;48.882;12.598;2022-08-14T02:23:58;97410.22;;;16.64
64904;BMP280;51401;48.882;12.598;2022-08-14T02:26:26;97412.84;;;16.64
64904;BMP280;51401;48.882;12.598;2022-08-14T02:28:55;97409.38;;;16.55
64904;BMP280;51401;48.882;12.598;2022-08-14T02:31:25;97406.66;;;16.46
64904;BMP280;51401;48.882;12.598;2022-08-14T02:33:53;97407.91;;;16.54
64904;BMP280;51401;48.882;12.598;2022-08-14T02:36:19;97417.75;;;16.50
64904;BMP280;51401;48.882;12.598;2022-08-14T02:38:44;97401.84;;;16.44
64904;BMP280;51401;48.882;12.598;2022-08-14T02:41:11;97405.38;;;16.38
64904;BMP280;51401;48.882;12.598;2022-08-14T02:43:37;97403.38;;;16.30
64904;BMP280;51401;48.882;12.598;2022-08-14T02:46:05;97402.66;;;16.29
64904;BMP280;51401;48.882;12.598;2022-08-14T02:48:32;97395.22;;;16.28
64904;BMP280;51401;48.882;12.598;2022-08-14T02:51:02;97401.19;;;16.28
64904;BMP280;51401;48.882;12.598;2022-08-14T02:53:29;97394.28;;;16.34
64904;BMP280;51401;48.882;12.598;2022-08-14T02:55:55;97392.50;;;16.31
64904;BMP280;51401;48.882;12.598;2022-08-14T02:58:21;97395.66;;;16.26
64904;BMP280;51401;48.882;12.598;2022-08-14T03:00:48;97378.47;;;16.25
64904;BMP280;51401;48.882;12.598;2022-08-14T03:03:13;97386.66;;;16.27
64904;BMP280;51401;48.882;12.598;2022-08-14T03:05:41;97376.19;;;16.27
64904;BMP280;51401;48.882;12.598;2022-08-14T03:08:08;97384.03;;;16.27
64904;BMP280;51401;48.882;12.598;2022-08-14T03:10:35;97378.81;;;16.27
64904;BMP280;51401;48.882;12.598;2022-08-14T03:13:01;97374.50;;;16.33
64904;BMP280;51401;48.882;12.598;2022-08-14T03:15:29;97377.44;;;16.35
64904;BMP280;51401;48.882;12.598;2022-08-14T03:17:54;97375.44;;;16.39
64904;BMP280;51401;48.882;12.598;2022-08-14T03:20:20;97372.31;;;16.44
64904;BMP280;51401;48.882;12.598;2022-08-14T03:22:45;97368.53;;;16.45
64904;BMP280;51401;48.882;12.598;2022-08-14T03:25:10;97375.03;;;16.41
64904;BMP280;51401;48.882;12.598;2022-08-14T03:27:36;97366.78;;;16.42
64904;BMP280;51401;48.882;12.598;2022-08-14T03:30:03;97366.06;;;16.42
64904;BMP280;51401;48.882;12.598;2022-08-14T03:32:28;97363.53;;;16.38
64904;BMP280;51401;48.882;12.598;2022-08-14T03:34:58;97360.69;;;16.45
64904;BMP280;51401;48.882;12.598;2022-08-14T03:37:23;97358.28;;;16.38
64904;BMP280;51401;48.882;12.598;2022-08-14T03:39:51;97350.03;;;16.27
64904;BMP280;51401;48.882;12.598;2022-08-14T03:42:17;97360.56;;;16.24
64904;BMP280;51401;48.882;12.598;2022-08-14T03:44:42;97352.22;;;16.29
64904;BMP280;51401;48.882;12.598;2022-08-14T03:47:08;97349.59;;;16.29
64904;BMP280;51401;48.882;12.598;2022-08-14T03:49:34;97348.88;;;16.28
64904;BMP280;51401;48.882;12.598;2022-08-14T03:51:59;97349.69;;;16.25
64904;BMP280;51401;48.882;12.598;2022-08-14T03:54:34;97353.03;;;16.26
64904;BMP280;51401;48.882;12.598;2022-08-14T03:56:59;97355.22;;;16.15
64904;BMP280;51401;48.882;12.598;2022-08-14T03:59:26;97352.94;;;16.17
64904;BMP280;51401;48.882;12.598;2022-08-14T04:01:51;97353.97;;;16.19
64904;BMP280;51401;48.882;12.598;2022-08-14T04:04:16;97344.66;;;16.18
64904;BMP280;51401;48.882;12.598;2022-08-14T04:06:42;97350.56;;;16.22
64904;BMP280;51401;48.882;12.598;2022-08-14T04:09:07;97345.53;;;16.28
64904;BMP280;51401;48.882;12.598;2022-08-14T04:11:36;97349.91;;;16.18
64904;BMP280;51401;48.882;12.598;2022-08-14T04:14:03;97346.34;;;16.13
64904;BMP280;51401;48.882;12.598;2022-08-14T04:16:29;97345.81;;;16.05
64904;BMP280;51401;48.882;12.598;2022-08-14T04:18:57;97337.56;;;16.07
64904;BMP280;51401;48.882;12.598;2022-08-14T04:21:24;97339.63;;;16.12
64904;BMP280;51401;48.882;12.598;2022-08-14T04:23:53;97344.25;;;16.08
64904;BMP280;51401;48.882;12.598;2022-08-14T04:26:19;97337.63;;;16.03
64904;BMP280;51401;48.882;12.598;2022-08-14T04:28:48;97336.59;;;16.01
64904;BMP280;51401;48.882;12.598;2022-08-14T04:31:14;97340.66;;;16.02
64904;BMP280;51401;48.882;12.598;2022-08-14T04:33:40;97338.47;;;16.00
64904;BMP280;51401;48.882;12.598;2022-08-14T04:36:06;97343.50;;;15.95
64904;BMP280;51401;48.882;12.598;2022-08-14T04:38:32;97338.88;;;15.99
64904;BMP280;51401;48.882;12.598;2022-08-14T04:41:16;97337.19;;;15.92
64904;BMP280;51401;48.882;12.598;2022-08-14T04:43:59;97337.94;;;15.93
64904;BMP280;51401;48.882;12.598;2022-08-14T04:46:25;97333.84;;;15.92
64904;BMP280;51401;48.882;12.598;2022-08-14T04:48:53;97333.53;;;15.90
64904;BMP280;51401;48.882;12.598;2022-08-14T04:51:20;97331.25;;;15.92
64904;BMP280;51401;48.882;12.598;2022-08-14T04:53:50;97335.44;;;16.02
64904;BMP280;51401;48.882;12.598;2022-08-14T04:56:17;97342.88;;;16.15
64904;BMP280;51401;48.882;12.598;2022-08-14T04:58:50;97331.81;;;16.61
64904;BMP280;51401;48.882;12.598;2022-08-14T05:01:20;97329.53;;;17.08
64904;BMP280;51401;48.882;12.598;2022-08-14T05:03:45;97339.03;;;17.48
64904;BMP280;51401;48.882;12.598;2022-08-14T05:06:11;97339.00;;;17.90
64904;BMP280;51401;48.882;12.598;2022-08-14T05:08:37;97344.00;;;17.97
64904;BMP280;51401;48.882;12.598;2022-08-14T05:11:04;97334.59;;;18.17
64904;BMP280;51401;48.882;12.598;2022-08-14T05:13:31;97340.94;;;18.29
64904;BMP280;51401;48.882;12.598;2022-08-14T05:15:58;97332.88;;;18.23
64904;BMP280;51401;48.882;12.598;2022-08-14T05:18:29;97341.63;;;18.59
64904;BMP280;51401;48.882;12.598;2022-08-14T05:20:57;97331.88;;;18.86
64904;BMP280;51401;48.882;12.598;2022-08-14T05:23:25;97333.34;;;19.05
64904;BMP280;51401;48.882;12.598;2022-08-14T05:25:53;97336.13;;;19.37
64904;BMP280;51401;48.882;12.598;2022-08-14T05:28:22;97339.84;;;19.71
64904;BMP280;51401;48.882;12.598;2022-08-14T05:30:49;97343.31;;;19.95
64904;BMP280;51401;48.882;12.598;2022-08-14T05:33:16;97331.22;;;20.11
64904;BMP280;51401;48.882;12.598;2022-08-14T05:35:43;97333.13;;;20.20
64904;BMP280;51401;48.882;12.598;2022-08-14T05:38:10;97330.66;;;20.07
64904;BMP280;51401;48.882;12.598;2022-08-14T05:40:38;97334.41;;;20.24
64904;BMP280;51401;48.882;12.598;2022-08-14T05:43:04;97328.03;;;20.07
64904;BMP280;51401;48.882;12.598;2022-08-14T05:45:29;97317.50;;;20.07
64904;BMP280;51401;48.882;12.598;2022-08-14T05:47:55;97313.16;;;19.96
64904;BMP280;51401;48.882;12.598;2022-08-14T05:50:20;97318.72;;;20.06
64904;BMP280;51401;48.882;12.598;2022-08-14T05:52:47;97319.28;;;20.10
64904;BMP280;51401;48.882;12.598;2022-08-14T05:55:13;97320.50;;;20.24
64904;BMP280;51401;48.882;12.598;2022-08-14T05:57:59;97311.00;;;20.26
64904;BMP280;51401;48.882;12.598;2022-08-14T06:00:28;97304.66;;;20.55
64904;BMP280;51401;48.882;12.598;2022-08-14T06:02:54;97299.84;;;20.77
64904;BMP280;51401;48.882;12.598;2022-08-14T06:05:22;97296.31;;;20.94
64904;BMP280;51401;48.882;12.598;2022-08-14T06:07:48;97297.13;;;21.23
64904;BMP280;51401;48.882;12.598;2022-08-14T06:10:13;97298.00;;;21.20
64904;BMP280;51401;48.882;12.598;2022-08-14T06:12:39;97301.84;;;21.19
64904;BMP280;51401;48.882;12.598;2022-08-14T06:15:06;97290.03;;;21.43
64904;BMP280;51401;48.882;12.598;2022-08-14T06:17:42;97294.50;;;22.00
64904;BMP280;51401;48.882;12.598;2022-08-14T06:20:08;97287.72;;;22.13
64904;BMP280;51401;48.882;12.598;2022-08-14T06:22:33;97299.78;;;22.00
64904;BMP280;51401;48.882;12.598;2022-08-14T06:24:58;97285.25;;;22.29
64904;BMP280;51401;48.882;12.598;2022-08-14T06:27:24;97280.03;;;22.74
64904;BMP280;51401;48.882;12.598;2022-08-14T06:29:49;97279.97;;;23.18
64904;BMP280;51401;48.882;12.598;2022-08-14T06:32:14;97286.91;;;23.41
64904;BMP280;51401;48.882;12.598;2022-08-14T06:34:40;97279.97;;;23.79
64904;BMP280;51401;48.882;12.598;2022-08-14T06:37:05;97275.72;;;22.76
64904;BMP280;51401;48.882;12.598;2022-08-14T06:39:31;97284.94;;;23.36
64904;BMP280;51401;48.882;12.598;2022-08-14T06:41:58;97279.19;;;23.43
64904;BMP280;51401;48.882;12.598;2022-08-14T06:44:23;97282.97;;;23.67
64904;BMP280;51401;48.882;12.598;2022-08-14T06:46:48;97285.69;;;23.72
64904;BMP280;51401;48.882;12.598;2022-08-14T06:49:14;97284.06;;;23.50
64904;BMP280;51401;48.882;12.598;2022-08-14T06:51:39;97282.69;;;23.60
64904;BMP280;51401;48.882;12.598;2022-08-14T06:54:11;97278.63;;;23.28
64904;BMP280;51401;48.882;12.598;2022-08-14T06:56:36;97288.31;;;23.12
64904;BMP280;51401;48.882;12.598;2022-08-14T06:59:02;97284.50;;;23.43
64904;BMP280;51401;48.882;12.598;2022-08-14T07:01:27;97285.53;;;23.92
64904;BMP280;51401;48.882;12.598;2022-08-14T07:04:11;97284.22;;;23.71
64904;BMP280;51401;48.882;12.598;2022-08-14T07:06:55;97294.72;;;23.61
64904;BMP280;51401;48.882;12.598;2022-08-14T07:09:20;97300.91;;;24.29
64904;BMP280;51401;48.882;12.598;2022-08-14T07:11:45;97287.16;;;24.31
64904;BMP280;51401;48.882;12.598;2022-08-14T07:14:11;97290.06;;;24.22
64904;BMP280;51401;48.882;12.598;2022-08-14T07:16:36;97294.06;;;24.80
64904;BMP280;51401;48.882;12.598;2022-08-14T07:19:01;97292.63;;;24.90
64904;BMP280;51401;48.882;12.598;2022-08-14T07:21:27;97291.72;;;25.15
64904;BMP280;51401;48.882;12.598;2022-08-14T07:23:52;97294.09;;;24.86
64904;BMP280;51401;48.882;12.598;2022-08-14T07:26:17;97294.03;;;24.64
64904;BMP280;51401;48.882;12.598;2022-08-14T07:28:43;97292.13;;;24.70
64904;BMP280;51401;48.882;12.598;2022-08-14T07:31:10;97295.22;;;24.58
64904;BMP280;51401;48.882;12.598;2022-08-14T07:33:45;97295.03;;;24.77
64904;BMP280;51401;48.882;12.598;2022-08-14T07:36:13;97299.34;;;24.64
64904;BMP280;51401;48.882;12.598;2022-08-14T07:38:39;97301.09;;;25.48
64904;BMP280;51401;48.882;12.598;2022-08-14T07:41:06;97304.25;;;25.46
64904;BMP280;51401;48.882;12.598;2022-08-14T07:43:33;97309.59;;;26.29
64904;BMP280;51401;48.882;12.598;2022-08-14T07:45:59;97306.88;;;26.40
64904;BMP280;51401;48.882;12.598;2022-08-14T07:48:24;97300.47;;;26.09
64904;BMP280;51401;48.882;12.598;2022-08-14T07:50:49;97305.22;;;26.26
64904;BMP280;51401;48.882;12.598;2022-08-14T07:53:16;97305.94;;;26.32
64904;BMP280;51401;48.882;12.598;2022-08-14T07:55:42;97304.53;;;26.71
64904;BMP280;51401;48.882;12.598;2022-08-14T07:58:08;97299.81;;;27.45
64904;BMP280;51401;48.882;12.598;2022-08-14T08:00:35;97299.28;;;27.94
64904;BMP280;51401;48.882;12.598;2022-08-14T08:03:00;97296.28;;;27.32
64904;BMP280;51401;48.882;12.598;2022-08-14T08:05:27;97303.16;;;27.75
64904;BMP280;51401;48.882;12.598;2022-08-14T08:07:53;97293.34;;;27.83
64904;BMP280;51401;48.882;12.598;2022-08-14T08:10:24;97299.97;;;27.53
64904;BMP280;51401;48.882;12.598;2022-08-14T08:15:30;97298.44;;;27.62
64904;BMP280;51401;48.882;12.598;2022-08-14T08:17:57;97296.09;;;27.77
64904;BMP280;51401;48.882;12.598;2022-08-14T08:20:24;97282.75;;;28.01
64904;BMP280;51401;48.882;12.598;2022-08-14T08:22:51;97290.41;;;28.58
64904;BMP280;51401;48.882;12.598;2022-08-14T08:25:17;97282.38;;;27.91
64904;BMP280;51401;48.882;12.598;2022-08-14T08:30:21;97294.53;;;28.59
64904;BMP280;51401;48.882;12.598;2022-08-14T08:32:46;97292.44;;;29.27
64904;BMP280;51401;48.882;12.598;2022-08-14T08:35:19;97285.03;;;28.95
64904;BMP280;51401;48.882;12.598;2022-08-14T08:37:47;97279.72;;;28.58
64904;BMP280;51401;48.882;12.598;2022-08-14T08:40:28;97265.06;;;28.34
64904;BMP280;51401;48.882;12.598;2022-08-14T08:42:53;97266.47;;;28.71
64904;BMP280;51401;48.882;12.598;2022-08-14T08:45:20;97276.22;;;29.12
64904;BMP280;51401;48.882;12.598;2022-08-14T08:47:46;97274.59;;;29.48
64904;BMP280;51401;48.882;12.598;2022-08-14T08:50:36;97277.69;;;30.10
64904;BMP280;51401;48.882;12.598;2022-08-14T08:53:05;97285.22;;;29.86
64904;BMP280;51401;48.882;12.598;2022-08-14T08:55:33;97279.72;;;29.46
64904;BMP280;51401;48.882;12.598;2022-08-14T08:58:01;97270.03;;;29.17
64904;BMP280;51401;48.882;12.598;2022-08-14T09:00:28;97258.34;;;29.20
64904;BMP280;51401;48.882;12.598;2022-08-14T09:03:00;97254.09;;;30.21
64904;BMP280;51401;48.882;12.598;2022-08-14T09:05:27;97250.56;;;30.26
64904;BMP280;51401;48.882;12.598;2022-08-14T09:07:53;97253.75;;;30.24
64904;BMP280;51401;48.882;12.598;2022-08-14T09:10:18;97252.78;;;29.56
64904;BMP280;51401;48.882;12.598;2022-08-14T09:12:44;97253.03;;;29.91
64904;BMP280;51401;48.882;12.598;2022-08-14T09:15:10;97252.56;;;30.25
64904;BMP280;51401;48.882;12.598;2022-08-14T09:17:35;97255.59;;;30.90
64904;BMP280;51401;48.882;12.598;2022-08-14T09:20:01;97251.63;;;30.63
64904;BMP280;51401;48.882;12.598;2022-08-14T09:22:27;97247.13;;;30.58
64904;BMP280;51401;48.882;12.598;2022-08-14T09:24:54;97249.63;;;31.04
64904;BMP280;51401;48.882;12.598;2022-08-14T09:27:19;97253.13;;;30.92
64904;BMP280;51401;48.882;12.598;2022-08-14T09:29:45;97259.59;;;30.96
64904;BMP280;51401;48.882;12.598;2022-08-14T09:32:15;97247.50;;;30.22
64904;BMP280;51401;48.882;12.598;2022-08-14T09:35:02;97250.25;;;30.70
64904;BMP280;51401;48.882;12.598;2022-08-14T09:47:49;97226.06;;;31.87
64904;BMP280;51401;48.882;12.598;2022-08-14T09:50:32;97227.03;;;31.54
64904;BMP280;51401;48.882;12.598;2022-08-14T09:53:07;97241.44;;;30.82
64904;BMP280;51401;48.882;12.598;2022-08-14T09:55:35;97233.81;;;30.86
64904;BMP280;51401;48.882;12.598;2022-08-14T09:58:19;97207.13;;;30.33
64904;BMP280;51401;48.882;12.598;2022-08-14T10:00:50;97219.09;;;29.28
64904;BMP280;51401;48.882;12.598;2022-08-14T10:03:28;97226.03;;;30.15
64904;BMP280;51401;48.882;12.598;2022-08-14T10:06:08;97216.13;;;30.23
64904;BMP280;51401;48.882;12.598;2022-08-14T10:08:43;97212.56;;;30.60
64904;BMP280;51401;48.882;12.598;2022-08-14T10:11:21;97210.78;;;30.63
64904;BMP280;51401;48.882;12.598;2022-08-14T10:13:49;97197.94;;;30.69
64904;BMP280;51401;48.882;12.598;2022-08-14T10:16:25;97212.22;;;30.91
64904;BMP280;51401;48.882;12.598;2022-08-14T10:19:03;97208.47;;;31.21
64904;BMP280;51401;48.882;12.598;2022-08-14T10:21:30;97208.28;;;30.92
64904;BMP280;51401;48.882;12.598;2022-08-14T10:23:55;97211.47;;;31.18
64904;BMP280;51401;48.882;12.598;2022-08-14T10:26:21;97205.28;;;31.72
64904;BMP280;51401;48.882;12.598;2022-08-14T10:28:48;97204.34;;;30.93
64904;BMP280;51401;48.882;12.598;2022-08-14T10:31:28;97199.06;;;30.53
64904;BMP280;51401;48.882;12.598;2022-08-14T10:33:57;97197.81;;;31.01
64904;BMP280;51401;48.882;12.598;2022-08-14T10:36:36;97190.88;;;30.78
64904;BMP280;51401;48.882;12.598;2022-08-14T10:39:07;97187.34;;;30.63
64904;BMP280;51401;48.882;12.598;2022-08-14T10:41:41;97188.59;;;31.59
64904;BMP280;51401;48.882;12.598;2022-08-14T10:44:11;97185.50;;;32.71
64904;BMP280;51401;48.882;12.598;2022-08-14T10:46:46;97182.13;;;32.26
64904;BMP280;51401;48.882;12.598;2022-08-14T10:49:29;97184.63;;;32.10
64904;BMP280;51401;48.882;12.598;2022-08-14T10:51:59;97181.56;;;32.72
64904;BMP280;51401;48.882;12.598;2022-08-14T10:54:36;97170.25;;;32.73
64904;BMP280;51401;48.882;12.598;2022-08-14T10:57:24;97170.81;;;32.79
64904;BMP280;51401;48.882;12.598;2022-08-14T10:59:58;97166.94;;;33.74
64904;BMP280;51401;48.882;12.598;2022-08-14T11:02:32;97166.22;;;33.11
64904;BMP280;51401;48.882;12.598;2022-08-14T11:07:28;97155.25;;;31.89
64904;BMP280;51401;48.882;12.598;2022-08-14T11:09:55;97158.66;;;32.56
64904;BMP280;51401;48.882;12.598;2022-08-14T11:12:21;97151.28;;;32.71
64904;BMP280;51401;48.882;12.598;2022-08-14T11:14:55;97158.75;;;32.87
64904;BMP280;51401;48.882;12.598;2022-08-14T11:17:21;97153.72;;;32.99
64904;BMP280;51401;48.882;12.598;2022-08-14T11:19:49;97157.88;;;32.85
64904;BMP280;51401;48.882;12.598;2022-08-14T11:22:16;97159.78;;;33.45
64904;BMP280;51401;48.882;12.598;2022-08-14T11:24:43;97154.59;;;33.47
64904;BMP280;51401;48.882;12.598;2022-08-14T11:27:10;97150.31;;;33.37
64904;BMP280;51401;48.882;12.598;2022-08-14T11:29:39;97136.66;;;33.73
64904;BMP280;51401;48.882;12.598;2022-08-14T11:32:05;97129.06;;;33.79
64904;BMP280;51401;48.882;12.598;2022-08-14T11:34:35;97123.88;;;33.19
64904;BMP280;51401;48.882;12.598;2022-08-14T11:37:11;97133.44;;;33.68
64904;BMP280;51401;48.882;12.598;2022-08-14T11:39:36;97137.00;;;33.46
64904;BMP280;51401;48.882;12.598;2022-08-14T11:42:05;97127.34;;;33.43
64904;BMP280;51401;48.882;12.598;2022-08-14T11:44:31;97124.06;;;33.52
64904;BMP280;51401;48.882;12.598;2022-08-14T11:46:57;97118.00;;;33.13
64904;BMP280;51401;48.882;12.598;2022-08-14T11:49:27;97125.47;;;32.76
64904;BMP280;51401;48.882;12.598;2022-08-14T11:51:55;97124.56;;;33.19
64904;BMP280;51401;48.882;12.598;2022-08-14T11:54:21;97121.13;;;32.95
64904;BMP280;51401;48.882;12.598;2022-08-14T11:56:46;97108.91;;;33.64
64904;BMP280;51401;48.882;12.598;2022-08-14T11:59:18;97110.66;;;33.45
64904;BMP280;51401;48.882;12.598;2022-08-14T12:01:43;97114.81;;;32.46
64904;BMP280;51401;48.882;12.598;2022-08-14T12:04:17;97111.91;;;32.59
64904;BMP280;51401;48.882;12.598;2022-08-14T12:06:49;97113.88;;;33.12
64904;BMP280;51401;48.882;12.598;2022-08-14T12:09:30;97116.06;;;33.69
64904;BMP280;51401;48.882;12.598;2022-08-14T12:11:56;97095.00;;;33.98
64904;BMP280;51401;48.882;12.598;2022-08-14T12:14:22;97108.75;;;35.19
64904;BMP280;51401;48.882;12.598;2022-08-14T12:17:02;97092.91;;;34.30
64904;BMP280;51401;48.882;12.598;2022-08-14T12:19:28;97092.56;;;34.60
64904;BMP280;51401;48.882;12.598;2022-08-14T12:21:53;97106.81;;;34.69
64904;BMP280;51401;48.882;12.598;2022-08-14T12:24:26;97107.50;;;34.61
64904;BMP280;51401;48.882;12.598;2022-08-14T12:26:55;97095.44;;;35.04
64904;BMP280;51401;48.882;12.598;2022-08-14T12:29:21;97089.34;;;34.11
64904;BMP280;51401;48.882;12.598;2022-08-14T12:31:57;97074.78;;;31.89
64904;BMP280;51401;48.882;12.598;2022-08-14T12:34:29;97069.59;;;31.05
64904;BMP280;51401;48.882;12.598;2022-08-14T12:37:05;97067.84;;;30.46
64904;BMP280;51401;48.882;12.598;2022-08-14T12:39:32;97072.38;;;30.23
64904;BMP280;51401;48.882;12.598;2022-08-14T12:41:58;97076.81;;;31.32
64904;BMP280;51401;48.882;12.598;2022-08-14T12:44:39;97074.91;;;32.21
64904;BMP280;51401;48.882;12.598;2022-08-14T12:47:12;97065.84;;;33.16
64904;BMP280;51401;48.882;12.598;2022-08-14T12:50:01;97061.19;;;33.64
64904;BMP280;51401;48.882;12.598;2022-08-14T12:52:31;97069.38;;;33.97
64904;BMP280;51401;48.882;12.598;2022-08-14T12:55:03;97068.53;;;34.87
64904;BMP280;51401;48.882;12.598;2022-08-14T13:02:40;97044.88;;;32.76
64904;BMP280;51401;48.882;12.598;2022-08-14T13:05:07;97043.38;;;33.93
64904;BMP280;51401;48.882;12.598;2022-08-14T13:07:34;97041.31;;;34.50
64904;BMP280;51401;48.882;12.598;2022-08-14T13:10:00;97048.38;;;34.46
64904;BMP280;51401;48.882;12.598;2022-08-14T13:12:26;97044.59;;;34.16
64904;BMP280;51401;48.882;12.598;2022-08-14T13:14:56;97033.00;;;34.39
64904;BMP280;51401;48.882;12.598;2022-08-14T13:17:24;97036.81;;;34.19
64904;BMP280;51401;48.882;12.598;2022-08-14T13:19:51;97030.81;;;34.12
64904;BMP280;51401;48.882;12.598;2022-08-14T13:22:22;97025.34;;;33.62
64904;BMP280;51401;48.882;12.598;2022-08-14T13:24:51;97024.91;;;33.25
64904;BMP280;51401;48.882;12.598;2022-08-14T13:27:19;97021.84;;;32.58
64904;BMP280;51401;48.882;12.598;2022-08-14T13:29:46;97011.28;;;31.77
64904;BMP280;51401;48.882;12.598;2022-08-14T13:32:12;97017.41;;;30.99
64904;BMP280;51401;48.882;12.598;2022-08-14T13:34:38;97012.09;;;31.14
64904;BMP280;51401;48.882;12.598;2022-08-14T13:37:05;97005.34;;;30.71
64904;BMP280;51401;48.882;12.598;2022-08-14T13:39:31;96998.41;;;30.75
64904;BMP280;51401;48.882;12.598;2022-08-14T13:41:58;96981.22;;;30.28
64904;BMP280;51401;48.882;12.598;2022-08-14T13:44:26;96976.28;;;29.85
64904;BMP280;51401;48.882;12.598;2022-08-14T13:46:51;96969.19;;;30.15
64904;BMP280;51401;48.882;12.598;2022-08-14T13:49:16;96980.50;;;30.63
64904;BMP280;51401;48.882;12.598;2022-08-14T13:51:46;96981.44;;;31.59
64904;BMP280;51401;48.882;12.598;2022-08-14T13:54:16;96970.75;;;32.27
64904;BMP280;51401;48.882;12.598;2022-08-14T13:56:47;96982.16;;;33.12
64904;BMP280;51401;48.882;12.598;2022-08-14T13:59:13;96967.75;;;32.08
64904;BMP280;51401;48.882;12.598;2022-08-14T14:01:39;96980.88;;;32.50
64904;BMP280;51401;48.882;12.598;2022-08-14T14:04:12;96968.75;;;32.42
64904;BMP280;51401;48.882;12.598;2022-08-14T14:06:38;96976.47;;;32.77
64904;BMP280;51401;48.882;12.598;2022-08-14T14:09:05;96962.16;;;32.28
64904;BMP280;51401;48.882;12.598;2022-08-14T14:11:34;96954.72;;;32.51
64904;BMP280;51401;48.882;12.598;2022-08-14T14:14:00;96954.47;;;32.32
64904;BMP280;51401;48.882;12.598;2022-08-14T14:16:25;96946.81;;;32.60
64904;BMP280;51401;48.882;12.598;2022-08-14T14:18:52;96944.78;;;32.36
64904;BMP280;51401;48.882;12.598;2022-08-14T14:21:22;96935.91;;;32.12
64904;BMP280;51401;48.882;12.598;2022-08-14T14:23:49;96944.97;;;32.70
64904;BMP280;51401;48.882;12.598;2022-08-14T14:26:17;96940.28;;;31.71
64904;BMP280;51401;48.882;12.598;2022-08-14T14:28:46;96936.91;;;32.31